sensor_id;sensor_type;location;lat;lon;timestamp;temperature;humidity
2459;DHT22;1241;50.920;6.936;2022-12-17T00:00:28;1.50;99.90
2459;DHT22;1241;50.920;6.936;2022-12-17T00:03:12;1.60;99.90
2459;DHT22;1241;50.920;6.936;2022-12-17T00:05:56;1.60;99.90
2459;DHT22;1241;50.920;6.936;2022-12-17T00:08:40;1.60;99.90
2459;DHT22;1241;50.920;6.936;2022-12-17T00:11:24;1.60;99.90
2459;DHT22;1241;50.920;6.936;2022-12-17T00:14:11;1.40;99.90
2459;DHT22;1241;50.920;6.936;2022-12-17T00:16:56;1.30;99.90
2459;DHT22;1241;50.920;6.936;2022-12-17T00:19:40;1.20;99.90
2459;DHT22;1241;50.920;6.936;2022-12-17T00:22:24;1.30;99.90
2459;DHT22;1241;50.920;6.936;2022-12-17T00:25:08;1.40;99.90
2459;DHT22;1241;50.920;6.936;2022-12-17T00:27:52;1.40;99.90
2459;DHT22;1241;50.920;6.936;2022-12-17T00:30:37;1.40;99.90
2459;DHT22;1241;50.920;6.936;2022-12-17T00:33:21;1.20;99.90
2459;DHT22;1241;50.920;6.936;2022-12-17T00:36:09;1.20;99.90
2459;DHT22;1241;50.920;6.936;2022-12-17T00:38:53;1.20;99.90
2459;DHT22;1241;50.920;6.936;2022-12-17T00:41:37;1.20;99.90
2459;DHT22;1241;50.920;6.936;2022-12-17T00:44:22;1.20;99.90
2459;DHT22;1241;50.920;6.936;2022-12-17T00:47:06;1.20;99.90
2459;DHT22;1241;50.920;6.936;2022-12-17T00:49:51;0.90;99.90
2459;DHT22;1241;50.920;6.936;2022-12-17T00:52:38;0.90;99.90
2459;DHT22;1241;50.920;6.936;2022-12-17T00:55:25;1.00;99.90
2459;DHT22;1241;50.920;6.936;2022-12-17T00:58:09;0.90;99.90
2459;DHT22;1241;50.920;6.936;2022-12-17T01:00:57;0.80;99.90
2459;DHT22;1241;50.920;6.936;2022-12-17T01:03:42;0.70;99.90
2459;DHT22;1241;50.920;6.936;2022-12-17T01:06:27;0.60;99.90
2459;DHT22;1241;50.920;6.936;2022-12-17T01:09:11;0.70;99.90
2459;DHT22;1241;50.920;6.936;2022-12-17T01:11:55;0.70;99.90
2459;DHT22;1241;50.920;6.936;2022-12-17T01:14:40;0.60;99.90
2459;DHT22;1241;50.920;6.936;2022-12-17T01:17:45;0.50;99.90
2459;DHT22;1241;50.920;6.936;2022-12-17T01:20:29;0.40;99.90
2459;DHT22;1241;50.920;6.936;2022-12-17T01:23:14;0.40;99.90
2459;DHT22;1241;50.920;6.936;2022-12-17T01:26:01;0.40;99.90
2459;DHT22;1241;50.920;6.936;2022-12-17T01:28:45;0.40;99.90
2459;DHT22;1241;50.920;6.936;2022-12-17T01:31:29;0.40;99.90
2459;DHT22;1241;50.920;6.936;2022-12-17T01:34:15;0.40;99.90
2459;DHT22;1241;50.920;6.936;2022-12-17T01:37:02;0.30;99.90
2459;DHT22;1241;50.920;6.936;2022-12-17T01:39:46;0.30;99.90
2459;DHT22;1241;50.920;6.936;2022-12-17T01:42:39;0.40;99.90
2459;DHT22;1241;50.920;6.936;2022-12-17T01:45:25;0.40;99.90
2459;DHT22;1241;50.920;6.936;2022-12-17T01:48:14;0.50;99.90
2459;DHT22;1241;50.920;6.936;2022-12-17T01:51:00;0.50;99.90
2459;DHT22;1241;50.920;6.936;2022-12-17T01:53:53;0.60;99.90
2459;DHT22;1241;50.920;6.936;2022-12-17T01:56:40;0.40;99.90
2459;DHT22;1241;50.920;6.936;2022-12-17T01:59:55;0.40;99.90
2459;DHT22;1241;50.920;6.936;2022-12-17T02:02:39;0.50;99.90
2459;DHT22;1241;50.920;6.936;2022-12-17T02:05:37;0.50;99.90
2459;DHT22;1241;50.920;6.936;2022-12-17T02:08:53;0.50;99.90
2459;DHT22;1241;50.920;6.936;2022-12-17T02:12:06;0.50;99.90
2459;DHT22;1241;50.920;6.936;2022-12-17T02:15:00;0.40;99.90
2459;DHT22;1241;50.920;6.936;2022-12-17T02:17:51;0.30;99.90
2459;DHT22;1241;50.920;6.936;2022-12-17T02:20:38;0.30;99.90
2459;DHT22;1241;50.920;6.936;2022-12-17T02:29:33;-0.10;99.90
2459;DHT22;1241;50.920;6.936;2022-12-17T02:32:19;-0.10;99.90
2459;DHT22;1241;50.920;6.936;2022-12-17T02:35:34;-0.10;99.90
2459;DHT22;1241;50.920;6.936;2022-12-17T02:38:23;0.00;99.90
2459;DHT22;1241;50.920;6.936;2022-12-17T02:41:14;-0.20;99.90
2459;DHT22;1241;50.920;6.936;2022-12-17T02:44:03;-0.20;99.90
2459;DHT22;1241;50.920;6.936;2022-12-17T02:46:51;-0.40;99.90
2459;DHT22;1241;50.920;6.936;2022-12-17T02:49:44;-0.50;99.90
2459;DHT22;1241;50.920;6.936;2022-12-17T02:52:36;-0.50;99.90
2459;DHT22;1241;50.920;6.936;2022-12-17T02:55:24;-0.50;99.90
2459;DHT22;1241;50.920;6.936;2022-12-17T02:58:08;-0.40;99.90
2459;DHT22;1241;50.920;6.936;2022-12-17T03:00:53;-0.40;99.90
2459;DHT22;1241;50.920;6.936;2022-12-17T03:03:39;-0.30;99.90
2459;DHT22;1241;50.920;6.936;2022-12-17T03:06:24;-0.30;99.90
2459;DHT22;1241;50.920;6.936;2022-12-17T03:09:08;-0.50;99.90
2459;DHT22;1241;50.920;6.936;2022-12-17T03:11:53;-0.50;99.90
2459;DHT22;1241;50.920;6.936;2022-12-17T03:14:37;-0.30;99.90
2459;DHT22;1241;50.920;6.936;2022-12-17T03:17:21;-0.40;99.90
2459;DHT22;1241;50.920;6.936;2022-12-17T03:20:06;-0.40;99.90
2459;DHT22;1241;50.920;6.936;2022-12-17T03:22:50;-0.50;99.90
2459;DHT22;1241;50.920;6.936;2022-12-17T03:25:34;-0.50;99.90
2459;DHT22;1241;50.920;6.936;2022-12-17T03:28:18;-0.40;99.90
2459;DHT22;1241;50.920;6.936;2022-12-17T03:31:03;-0.70;99.90
2459;DHT22;1241;50.920;6.936;2022-12-17T03:33:47;-0.70;99.90
2459;DHT22;1241;50.920;6.936;2022-12-17T03:36:31;-0.70;99.90
2459;DHT22;1241;50.920;6.936;2022-12-17T03:39:16;-0.60;99.90
2459;DHT22;1241;50.920;6.936;2022-12-17T03:42:00;-0.60;99.90
2459;DHT22;1241;50.920;6.936;2022-12-17T03:44:45;-0.40;99.90
2459;DHT22;1241;50.920;6.936;2022-12-17T03:47:29;-0.40;99.90
2459;DHT22;1241;50.920;6.936;2022-12-17T03:50:13;-0.40;99.90
2459;DHT22;1241;50.920;6.936;2022-12-17T03:53:00;-0.50;99.90
2459;DHT22;1241;50.920;6.936;2022-12-17T03:55:45;-0.50;99.90
2459;DHT22;1241;50.920;6.936;2022-12-17T03:58:29;-0.60;99.90
2459;DHT22;1241;50.920;6.936;2022-12-17T04:01:14;-0.70;99.90
2459;DHT22;1241;50.920;6.936;2022-12-17T04:03:58;-0.80;99.90
2459;DHT22;1241;50.920;6.936;2022-12-17T04:06:43;-0.90;99.90
2459;DHT22;1241;50.920;6.936;2022-12-17T04:09:27;-0.90;99.90
2459;DHT22;1241;50.920;6.936;2022-12-17T04:12:11;-1.00;99.90
2459;DHT22;1241;50.920;6.936;2022-12-17T04:14:56;-1.00;99.90
2459;DHT22;1241;50.920;6.936;2022-12-17T04:17:40;-1.10;99.90
2459;DHT22;1241;50.920;6.936;2022-12-17T04:20:25;-1.00;99.90
2459;DHT22;1241;50.920;6.936;2022-12-17T04:23:09;-1.10;99.90
2459;DHT22;1241;50.920;6.936;2022-12-17T04:25:53;-1.10;99.90
2459;DHT22;1241;50.920;6.936;2022-12-17T04:28:37;-1.10;99.90
2459;DHT22;1241;50.920;6.936;2022-12-17T04:31:23;-1.10;99.90
2459;DHT22;1241;50.920;6.936;2022-12-17T04:34:07;-1.10;99.90
2459;DHT22;1241;50.920;6.936;2022-12-17T04:36:51;-1.00;99.90
2459;DHT22;1241;50.920;6.936;2022-12-17T04:39:35;-1.10;99.90
2459;DHT22;1241;50.920;6.936;2022-12-17T04:42:20;-1.10;99.90
2459;DHT22;1241;50.920;6.936;2022-12-17T04:45:05;-1.10;99.90
2459;DHT22;1241;50.920;6.936;2022-12-17T04:47:49;-1.10;99.90
2459;DHT22;1241;50.920;6.936;2022-12-17T04:50:33;-1.20;99.90
2459;DHT22;1241;50.920;6.936;2022-12-17T04:53:18;-1.30;99.90
2459;DHT22;1241;50.920;6.936;2022-12-17T04:56:02;-1.40;99.90
2459;DHT22;1241;50.920;6.936;2022-12-17T04:58:46;-1.50;99.90
2459;DHT22;1241;50.920;6.936;2022-12-17T05:01:31;-1.60;99.90
2459;DHT22;1241;50.920;6.936;2022-12-17T05:04:19;-1.70;99.90
2459;DHT22;1241;50.920;6.936;2022-12-17T05:07:03;-1.60;99.90
2459;DHT22;1241;50.920;6.936;2022-12-17T05:09:48;-1.60;99.90
2459;DHT22;1241;50.920;6.936;2022-12-17T05:12:36;-1.60;99.90
2459;DHT22;1241;50.920;6.936;2022-12-17T05:15:21;-1.60;99.90
2459;DHT22;1241;50.920;6.936;2022-12-17T05:18:07;-1.50;99.90
2459;DHT22;1241;50.920;6.936;2022-12-17T05:20:51;-1.60;99.90
2459;DHT22;1241;50.920;6.936;2022-12-17T05:23:36;-1.60;99.90
2459;DHT22;1241;50.920;6.936;2022-12-17T05:26:23;-1.70;99.90
2459;DHT22;1241;50.920;6.936;2022-12-17T05:29:08;-1.70;99.90
2459;DHT22;1241;50.920;6.936;2022-12-17T05:31:52;-1.70;99.90
2459;DHT22;1241;50.920;6.936;2022-12-17T05:34:37;-1.60;99.90
2459;DHT22;1241;50.920;6.936;2022-12-17T05:37:21;-1.60;99.90
2459;DHT22;1241;50.920;6.936;2022-12-17T05:40:06;-1.60;99.90
2459;DHT22;1241;50.920;6.936;2022-12-17T05:42:59;-1.60;99.90
2459;DHT22;1241;50.920;6.936;2022-12-17T05:45:46;-1.60;99.90
2459;DHT22;1241;50.920;6.936;2022-12-17T05:48:30;-1.60;99.90
2459;DHT22;1241;50.920;6.936;2022-12-17T05:51:15;-1.70;99.90
2459;DHT22;1241;50.920;6.936;2022-12-17T05:54:00;-1.70;99.90
2459;DHT22;1241;50.920;6.936;2022-12-17T05:56:44;-1.90;99.90
2459;DHT22;1241;50.920;6.936;2022-12-17T05:59:29;-2.00;99.90
2459;DHT22;1241;50.920;6.936;2022-12-17T06:02:13;-2.10;99.90
2459;DHT22;1241;50.920;6.936;2022-12-17T06:04:57;-2.20;99.90
2459;DHT22;1241;50.920;6.936;2022-12-17T06:07:41;-2.20;99.90
2459;DHT22;1241;50.920;6.936;2022-12-17T06:10:26;-2.10;99.90
2459;DHT22;1241;50.920;6.936;2022-12-17T06:13:11;-2.10;99.90
2459;DHT22;1241;50.920;6.936;2022-12-17T06:15:55;-2.10;99.90
2459;DHT22;1241;50.920;6.936;2022-12-17T06:18:40;-2.20;99.90
2459;DHT22;1241;50.920;6.936;2022-12-17T06:21:24;-2.20;99.90
2459;DHT22;1241;50.920;6.936;2022-12-17T06:24:09;-2.30;99.90
2459;DHT22;1241;50.920;6.936;2022-12-17T06:26:58;-2.40;99.90
2459;DHT22;1241;50.920;6.936;2022-12-17T06:29:42;-2.40;99.90
2459;DHT22;1241;50.920;6.936;2022-12-17T06:32:26;-2.30;99.90
2459;DHT22;1241;50.920;6.936;2022-12-17T06:35:11;-2.30;99.90
2459;DHT22;1241;50.920;6.936;2022-12-17T06:38:04;-2.20;99.90
2459;DHT22;1241;50.920;6.936;2022-12-17T06:40:49;-2.10;99.90
2459;DHT22;1241;50.920;6.936;2022-12-17T06:43:33;-2.20;99.90
2459;DHT22;1241;50.920;6.936;2022-12-17T06:46:18;-2.40;99.90
2459;DHT22;1241;50.920;6.936;2022-12-17T06:49:02;-2.50;99.90
2459;DHT22;1241;50.920;6.936;2022-12-17T06:51:47;-2.50;99.90
2459;DHT22;1241;50.920;6.936;2022-12-17T06:54:31;-2.50;99.90
2459;DHT22;1241;50.920;6.936;2022-12-17T06:57:16;-2.40;99.90
2459;DHT22;1241;50.920;6.936;2022-12-17T07:00:00;-2.50;99.90
2459;DHT22;1241;50.920;6.936;2022-12-17T07:02:44;-2.50;99.90
2459;DHT22;1241;50.920;6.936;2022-12-17T07:05:29;-2.40;99.90
2459;DHT22;1241;50.920;6.936;2022-12-17T07:08:13;-2.40;99.90
2459;DHT22;1241;50.920;6.936;2022-12-17T07:10:59;-2.60;99.90
2459;DHT22;1241;50.920;6.936;2022-12-17T07:13:43;-2.60;99.90
2459;DHT22;1241;50.920;6.936;2022-12-17T07:16:27;-2.50;99.90
2459;DHT22;1241;50.920;6.936;2022-12-17T07:19:12;-2.50;99.90
2459;DHT22;1241;50.920;6.936;2022-12-17T07:22:01;-2.70;99.90
2459;DHT22;1241;50.920;6.936;2022-12-17T07:24:45;-2.70;99.90
2459;DHT22;1241;50.920;6.936;2022-12-17T07:27:29;-2.80;99.90
2459;DHT22;1241;50.920;6.936;2022-12-17T07:30:14;-2.80;99.90
2459;DHT22;1241;50.920;6.936;2022-12-17T07:33:05;-2.90;99.90
2459;DHT22;1241;50.920;6.936;2022-12-17T07:35:52;-2.90;99.90
2459;DHT22;1241;50.920;6.936;2022-12-17T07:38:36;-2.90;99.90
2459;DHT22;1241;50.920;6.936;2022-12-17T07:41:20;-2.90;99.90
2459;DHT22;1241;50.920;6.936;2022-12-17T07:44:05;-2.80;99.90
2459;DHT22;1241;50.920;6.936;2022-12-17T07:46:49;-2.80;99.90
2459;DHT22;1241;50.920;6.936;2022-12-17T07:49:34;-2.90;99.90
2459;DHT22;1241;50.920;6.936;2022-12-17T07:52:18;-3.00;99.90
2459;DHT22;1241;50.920;6.936;2022-12-17T07:55:03;-2.90;99.90
2459;DHT22;1241;50.920;6.936;2022-12-17T07:57:47;-2.70;99.90
2459;DHT22;1241;50.920;6.936;2022-12-17T08:00:39;-2.80;99.90
2459;DHT22;1241;50.920;6.936;2022-12-17T08:03:24;-2.90;99.90
2459;DHT22;1241;50.920;6.936;2022-12-17T08:06:08;-2.90;99.90
2459;DHT22;1241;50.920;6.936;2022-12-17T08:08:54;-2.70;99.90
2459;DHT22;1241;50.920;6.936;2022-12-17T08:11:39;-2.70;99.90
2459;DHT22;1241;50.920;6.936;2022-12-17T08:14:23;-2.60;99.90
2459;DHT22;1241;50.920;6.936;2022-12-17T08:17:07;-2.50;99.90
2459;DHT22;1241;50.920;6.936;2022-12-17T08:19:52;-2.50;99.90
2459;DHT22;1241;50.920;6.936;2022-12-17T08:22:36;-2.50;99.90
2459;DHT22;1241;50.920;6.936;2022-12-17T08:25:20;-2.50;99.90
2459;DHT22;1241;50.920;6.936;2022-12-17T08:28:05;-2.40;99.90
2459;DHT22;1241;50.920;6.936;2022-12-17T08:30:49;-2.50;99.90
2459;DHT22;1241;50.920;6.936;2022-12-17T08:33:33;-2.50;99.90
2459;DHT22;1241;50.920;6.936;2022-12-17T08:36:18;-2.50;99.90
2459;DHT22;1241;50.920;6.936;2022-12-17T08:39:02;-2.50;99.90
2459;DHT22;1241;50.920;6.936;2022-12-17T08:41:47;-2.50;99.90
2459;DHT22;1241;50.920;6.936;2022-12-17T08:44:31;-2.50;99.90
2459;DHT22;1241;50.920;6.936;2022-12-17T08:47:15;-2.30;99.90
2459;DHT22;1241;50.920;6.936;2022-12-17T08:49:59;-2.20;99.90
2459;DHT22;1241;50.920;6.936;2022-12-17T08:52:44;-2.10;99.90
2459;DHT22;1241;50.920;6.936;2022-12-17T08:55:28;-2.10;99.90
2459;DHT22;1241;50.920;6.936;2022-12-17T08:58:12;-2.10;99.90
2459;DHT22;1241;50.920;6.936;2022-12-17T09:01:00;-2.00;99.90
2459;DHT22;1241;50.920;6.936;2022-12-17T09:03:45;-1.90;99.90
2459;DHT22;1241;50.920;6.936;2022-12-17T09:06:30;-1.80;99.90
2459;DHT22;1241;50.920;6.936;2022-12-17T09:09:15;-1.90;99.90
2459;DHT22;1241;50.920;6.936;2022-12-17T09:11:59;-1.90;99.90
2459;DHT22;1241;50.920;6.936;2022-12-17T09:14:43;-2.10;99.90
2459;DHT22;1241;50.920;6.936;2022-12-17T09:17:28;-2.30;99.90
2459;DHT22;1241;50.920;6.936;2022-12-17T09:20:12;-2.30;99.90
2459;DHT22;1241;50.920;6.936;2022-12-17T09:22:56;-2.30;99.90
2459;DHT22;1241;50.920;6.936;2022-12-17T09:25:41;-2.20;99.90
2459;DHT22;1241;50.920;6.936;2022-12-17T09:28:25;-2.10;99.90
2459;DHT22;1241;50.920;6.936;2022-12-17T09:31:09;-2.00;99.90
2459;DHT22;1241;50.920;6.936;2022-12-17T09:33:54;-2.00;99.90
2459;DHT22;1241;50.920;6.936;2022-12-17T09:36:37;-2.10;99.90
2459;DHT22;1241;50.920;6.936;2022-12-17T09:39:22;-1.90;99.90
2459;DHT22;1241;50.920;6.936;2022-12-17T09:42:14;-1.70;99.90
2459;DHT22;1241;50.920;6.936;2022-12-17T09:48:15;-1.50;99.90
2459;DHT22;1241;50.920;6.936;2022-12-17T09:51:02;-1.50;99.90
2459;DHT22;1241;50.920;6.936;2022-12-17T09:53:49;-1.70;99.90
2459;DHT22;1241;50.920;6.936;2022-12-17T09:56:35;-1.70;99.90
2459;DHT22;1241;50.920;6.936;2022-12-17T09:59:23;-1.80;99.90
2459;DHT22;1241;50.920;6.936;2022-12-17T10:02:29;-2.00;99.90
2459;DHT22;1241;50.920;6.936;2022-12-17T10:05:24;-2.10;99.90
2459;DHT22;1241;50.920;6.936;2022-12-17T10:08:13;-2.10;99.90
2459;DHT22;1241;50.920;6.936;2022-12-17T10:11:08;-1.90;99.90
2459;DHT22;1241;50.920;6.936;2022-12-17T10:13:53;-1.90;99.90
2459;DHT22;1241;50.920;6.936;2022-12-17T10:16:43;-1.70;99.90
2459;DHT22;1241;50.920;6.936;2022-12-17T10:19:36;-1.50;99.90
2459;DHT22;1241;50.920;6.936;2022-12-17T10:22:22;-1.30;99.90
2459;DHT22;1241;50.920;6.936;2022-12-17T10:25:21;-1.40;99.90
2459;DHT22;1241;50.920;6.936;2022-12-17T10:28:35;-1.50;99.90
2459;DHT22;1241;50.920;6.936;2022-12-17T10:31:21;-1.50;99.90
2459;DHT22;1241;50.920;6.936;2022-12-17T10:34:16;-1.50;99.90
2459;DHT22;1241;50.920;6.936;2022-12-17T10:37:01;-1.50;99.90
2459;DHT22;1241;50.920;6.936;2022-12-17T10:39:57;-1.40;99.90
2459;DHT22;1241;50.920;6.936;2022-12-17T10:42:42;-1.40;99.90
2459;DHT22;1241;50.920;6.936;2022-12-17T10:45:29;-1.40;99.90
2459;DHT22;1241;50.920;6.936;2022-12-17T10:48:23;-1.50;99.90
2459;DHT22;1241;50.920;6.936;2022-12-17T10:51:31;-1.50;99.90
2459;DHT22;1241;50.920;6.936;2022-12-17T10:54:25;-1.50;99.90
2459;DHT22;1241;50.920;6.936;2022-12-17T10:57:36;-1.40;99.90
2459;DHT22;1241;50.920;6.936;2022-12-17T11:00:32;-1.40;99.90
2459;DHT22;1241;50.920;6.936;2022-12-17T11:06:38;-1.20;99.90
2459;DHT22;1241;50.920;6.936;2022-12-17T11:09:29;-1.30;99.90
2459;DHT22;1241;50.920;6.936;2022-12-17T11:12:15;-1.20;99.90
2459;DHT22;1241;50.920;6.936;2022-12-17T11:15:07;-1.30;99.90
2459;DHT22;1241;50.920;6.936;2022-12-17T11:17:56;-1.10;99.90
2459;DHT22;1241;50.920;6.936;2022-12-17T11:21:20;-1.20;99.90
2459;DHT22;1241;50.920;6.936;2022-12-17T11:24:11;-1.10;99.90
2459;DHT22;1241;50.920;6.936;2022-12-17T11:26:57;-0.90;99.90
2459;DHT22;1241;50.920;6.936;2022-12-17T11:29:42;-0.70;99.90
2459;DHT22;1241;50.920;6.936;2022-12-17T11:35:56;-0.40;99.90
2459;DHT22;1241;50.920;6.936;2022-12-17T11:41:58;-0.70;99.90
2459;DHT22;1241;50.920;6.936;2022-12-17T11:45:04;-0.70;99.90
2459;DHT22;1241;50.920;6.936;2022-12-17T11:48:00;-0.70;99.90
2459;DHT22;1241;50.920;6.936;2022-12-17T11:56:49;-1.00;99.90
2459;DHT22;1241;50.920;6.936;2022-12-17T11:59:48;-1.00;99.90
2459;DHT22;1241;50.920;6.936;2022-12-17T12:02:59;-1.10;99.90
2459;DHT22;1241;50.920;6.936;2022-12-17T12:05:52;-1.30;99.90
2459;DHT22;1241;50.920;6.936;2022-12-17T12:15:06;-1.70;99.90
2459;DHT22;1241;50.920;6.936;2022-12-17T12:18:03;-1.70;99.90
2459;DHT22;1241;50.920;6.936;2022-12-17T12:23:58;-1.80;99.90
2459;DHT22;1241;50.920;6.936;2022-12-17T12:30:14;-2.00;99.90
2459;DHT22;1241;50.920;6.936;2022-12-17T12:36:10;-1.80;99.90
2459;DHT22;1241;50.920;6.936;2022-12-17T12:38:56;-1.80;99.90
2459;DHT22;1241;50.920;6.936;2022-12-17T12:44:51;-1.60;99.90
2459;DHT22;1241;50.920;6.936;2022-12-17T12:50:56;-1.40;99.90
2459;DHT22;1241;50.920;6.936;2022-12-17T12:53:42;-1.50;99.90
2459;DHT22;1241;50.920;6.936;2022-12-17T12:56:32;-1.50;99.90
2459;DHT22;1241;50.920;6.936;2022-12-17T12:59:31;-1.40;99.90
2459;DHT22;1241;50.920;6.936;2022-12-17T13:05:04;-1.40;99.90
2459;DHT22;1241;50.920;6.936;2022-12-17T13:08:22;-1.40;99.90
2459;DHT22;1241;50.920;6.936;2022-12-17T13:10:50;-1.40;99.90
2459;DHT22;1241;50.920;6.936;2022-12-17T13:16:30;-1.30;99.90
2459;DHT22;1241;50.920;6.936;2022-12-17T13:19:20;-1.30;99.90
2459;DHT22;1241;50.920;6.936;2022-12-17T13:21:46;-1.20;99.90
2459;DHT22;1241;50.920;6.936;2022-12-17T13:24:23;-1.20;99.90
2459;DHT22;1241;50.920;6.936;2022-12-17T13:26:49;-1.10;99.90
2459;DHT22;1241;50.920;6.936;2022-12-17T13:29:26;-1.00;99.90
2459;DHT22;1241;50.920;6.936;2022-12-17T13:32:02;-1.10;99.90
2459;DHT22;1241;50.920;6.936;2022-12-17T13:37:30;-1.10;99.90
2459;DHT22;1241;50.920;6.936;2022-12-17T13:42:34;-1.10;99.90
2459;DHT22;1241;50.920;6.936;2022-12-17T13:45:01;-1.00;99.90
2459;DHT22;1241;50.920;6.936;2022-12-17T13:47:33;-1.00;99.90
2459;DHT22;1241;50.920;6.936;2022-12-17T13:50:02;-1.00;99.90
2459;DHT22;1241;50.920;6.936;2022-12-17T13:52:28;-1.10;99.90
2459;DHT22;1241;50.920;6.936;2022-12-17T13:55:06;-1.00;99.90
2459;DHT22;1241;50.920;6.936;2022-12-17T13:57:35;-1.00;99.90
2459;DHT22;1241;50.920;6.936;2022-12-17T14:00:02;-1.00;99.90
2459;DHT22;1241;50.920;6.936;2022-12-17T14:02:38;-1.10;99.90
2459;DHT22;1241;50.920;6.936;2022-12-17T14:05:20;-1.10;99.90
2459;DHT22;1241;50.920;6.936;2022-12-17T14:07:46;-1.10;99.90
2459;DHT22;1241;50.920;6.936;2022-12-17T14:10:16;-1.10;99.90
2459;DHT22;1241;50.920;6.936;2022-12-17T14:12:42;-1.20;99.90
2459;DHT22;1241;50.920;6.936;2022-12-17T14:15:28;-1.20;99.90
2459;DHT22;1241;50.920;6.936;2022-12-17T14:17:54;-1.30;99.90
2459;DHT22;1241;50.920;6.936;2022-12-17T14:20:24;-1.30;99.90
2459;DHT22;1241;50.920;6.936;2022-12-17T14:22:53;-1.40;99.90
2459;DHT22;1241;50.920;6.936;2022-12-17T14:25:21;-1.40;99.90
2459;DHT22;1241;50.920;6.936;2022-12-17T14:27:58;-1.40;99.90
2459;DHT22;1241;50.920;6.936;2022-12-17T14:30:39;-1.40;99.90
2459;DHT22;1241;50.920;6.936;2022-12-17T14:35:51;-1.30;99.90
2459;DHT22;1241;50.920;6.936;2022-12-17T14:38:19;-1.40;99.90
2459;DHT22;1241;50.920;6.936;2022-12-17T14:40:45;-1.50;99.90
2459;DHT22;1241;50.920;6.936;2022-12-17T14:43:12;-1.50;99.90
2459;DHT22;1241;50.920;6.936;2022-12-17T14:45:47;-1.50;99.90
2459;DHT22;1241;50.920;6.936;2022-12-17T14:48:33;-1.50;99.90
2459;DHT22;1241;50.920;6.936;2022-12-17T14:51:40;-1.50;99.90
2459;DHT22;1241;50.920;6.936;2022-12-17T14:56:55;-1.60;99.90
2459;DHT22;1241;50.920;6.936;2022-12-17T14:59:34;-1.50;99.90
2459;DHT22;1241;50.920;6.936;2022-12-17T15:04:44;-1.50;99.90
2459;DHT22;1241;50.920;6.936;2022-12-17T15:07:22;-1.50;99.90
2459;DHT22;1241;50.920;6.936;2022-12-17T15:09:48;-1.60;99.90
2459;DHT22;1241;50.920;6.936;2022-12-17T15:12:14;-1.70;99.90
2459;DHT22;1241;50.920;6.936;2022-12-17T15:14:40;-1.70;99.90
2459;DHT22;1241;50.920;6.936;2022-12-17T15:17:05;-1.70;99.90
2459;DHT22;1241;50.920;6.936;2022-12-17T15:19:31;-1.70;99.90
2459;DHT22;1241;50.920;6.936;2022-12-17T15:21:57;-1.80;99.90
2459;DHT22;1241;50.920;6.936;2022-12-17T15:24:22;-1.80;99.90
2459;DHT22;1241;50.920;6.936;2022-12-17T15:26:49;-1.80;99.90
2459;DHT22;1241;50.920;6.936;2022-12-17T15:29:15;-1.80;99.90
2459;DHT22;1241;50.920;6.936;2022-12-17T15:31:41;-1.80;99.90
2459;DHT22;1241;50.920;6.936;2022-12-17T15:34:07;-1.90;99.90
2459;DHT22;1241;50.920;6.936;2022-12-17T15:36:34;-1.90;99.90
2459;DHT22;1241;50.920;6.936;2022-12-17T15:39:00;-2.00;99.90
2459;DHT22;1241;50.920;6.936;2022-12-17T15:41:25;-2.00;99.90
2459;DHT22;1241;50.920;6.936;2022-12-17T15:44:10;-2.10;99.90
2459;DHT22;1241;50.920;6.936;2022-12-17T15:46:37;-2.10;99.90
2459;DHT22;1241;50.920;6.936;2022-12-17T15:49:04;-2.10;99.90
2459;DHT22;1241;50.920;6.936;2022-12-17T15:51:30;-2.10;99.90
2459;DHT22;1241;50.920;6.936;2022-12-17T15:53:56;-2.10;99.90
2459;DHT22;1241;50.920;6.936;2022-12-17T15:56:24;-2.10;99.90
2459;DHT22;1241;50.920;6.936;2022-12-17T15:58:50;-2.20;99.90
2459;DHT22;1241;50.920;6.936;2022-12-17T16:01:17;-2.30;99.90
2459;DHT22;1241;50.920;6.936;2022-12-17T16:03:43;-2.30;99.90
2459;DHT22;1241;50.920;6.936;2022-12-17T16:06:10;-2.30;99.90
2459;DHT22;1241;50.920;6.936;2022-12-17T16:08:37;-2.20;99.90
2459;DHT22;1241;50.920;6.936;2022-12-17T16:11:08;-2.20;99.90
2459;DHT22;1241;50.920;6.936;2022-12-17T16:13:36;-2.30;99.90
2459;DHT22;1241;50.920;6.936;2022-12-17T16:16:02;-2.50;99.90
2459;DHT22;1241;50.920;6.936;2022-12-17T16:18:28;-2.50;99.90
2459;DHT22;1241;50.920;6.936;2022-12-17T16:21:07;-2.50;99.90
2459;DHT22;1241;50.920;6.936;2022-12-17T16:23:36;-2.70;99.90
2459;DHT22;1241;50.920;6.936;2022-12-17T16:26:04;-2.50;99.90
2459;DHT22;1241;50.920;6.936;2022-12-17T16:28:31;-2.60;99.90
2459;DHT22;1241;50.920;6.936;2022-12-17T16:30:59;-2.60;99.90
2459;DHT22;1241;50.920;6.936;2022-12-17T16:33:25;-2.50;99.90
2459;DHT22;1241;50.920;6.936;2022-12-17T16:35:52;-2.60;99.90
2459;DHT22;1241;50.920;6.936;2022-12-17T16:38:18;-2.50;99.90
2459;DHT22;1241;50.920;6.936;2022-12-17T16:40:45;-2.50;99.90
2459;DHT22;1241;50.920;6.936;2022-12-17T16:43:11;-2.60;99.90
2459;DHT22;1241;50.920;6.936;2022-12-17T16:45:49;-2.60;99.90
2459;DHT22;1241;50.920;6.936;2022-12-17T16:48:15;-2.60;99.90
2459;DHT22;1241;50.920;6.936;2022-12-17T16:50:43;-2.60;99.90
2459;DHT22;1241;50.920;6.936;2022-12-17T16:53:09;-2.60;99.90
2459;DHT22;1241;50.920;6.936;2022-12-17T16:55:46;-2.70;99.90
2459;DHT22;1241;50.920;6.936;2022-12-17T16:58:16;-2.70;99.90
2459;DHT22;1241;50.920;6.936;2022-12-17T17:00:42;-2.70;99.90
2459;DHT22;1241;50.920;6.936;2022-12-17T17:03:08;-2.70;99.90
2459;DHT22;1241;50.920;6.936;2022-12-17T17:05:36;-2.80;99.90
2459;DHT22;1241;50.920;6.936;2022-12-17T17:08:03;-2.90;99.90
2459;DHT22;1241;50.920;6.936;2022-12-17T17:10:29;-2.80;99.90
2459;DHT22;1241;50.920;6.936;2022-12-17T17:12:55;-2.80;99.90
2459;DHT22;1241;50.920;6.936;2022-12-17T17:15:22;-2.80;99.90
2459;DHT22;1241;50.920;6.936;2022-12-17T17:17:48;-2.90;99.90
2459;DHT22;1241;50.920;6.936;2022-12-17T17:20:14;-2.90;99.90
2459;DHT22;1241;50.920;6.936;2022-12-17T17:22:40;-3.00;99.90
2459;DHT22;1241;50.920;6.936;2022-12-17T17:25:06;-3.10;99.90
2459;DHT22;1241;50.920;6.936;2022-12-17T17:27:32;-3.10;99.90
2459;DHT22;1241;50.920;6.936;2022-12-17T17:29:58;-3.10;99.90
2459;DHT22;1241;50.920;6.936;2022-12-17T17:32:24;-3.10;99.90
2459;DHT22;1241;50.920;6.936;2022-12-17T17:34:50;-3.00;99.90
2459;DHT22;1241;50.920;6.936;2022-12-17T17:37:16;-3.00;99.90
2459;DHT22;1241;50.920;6.936;2022-12-17T17:39:42;-3.10;99.90
2459;DHT22;1241;50.920;6.936;2022-12-17T17:42:08;-3.10;99.90
2459;DHT22;1241;50.920;6.936;2022-12-17T17:44:35;-3.10;99.90
2459;DHT22;1241;50.920;6.936;2022-12-17T17:47:01;-3.10;99.90
2459;DHT22;1241;50.920;6.936;2022-12-17T17:49:26;-3.10;99.90
2459;DHT22;1241;50.920;6.936;2022-12-17T17:51:53;-3.20;99.90
2459;DHT22;1241;50.920;6.936;2022-12-17T17:54:19;-3.20;99.90
2459;DHT22;1241;50.920;6.936;2022-12-17T17:56:45;-3.20;99.90
2459;DHT22;1241;50.920;6.936;2022-12-17T17:59:12;-3.20;99.90
2459;DHT22;1241;50.920;6.936;2022-12-17T18:01:41;-3.20;99.90
2459;DHT22;1241;50.920;6.936;2022-12-17T18:04:14;-3.20;99.90
2459;DHT22;1241;50.920;6.936;2022-12-17T18:06:41;-3.30;99.90
2459;DHT22;1241;50.920;6.936;2022-12-17T18:09:08;-3.40;99.90
2459;DHT22;1241;50.920;6.936;2022-12-17T18:11:35;-3.40;99.90
2459;DHT22;1241;50.920;6.936;2022-12-17T18:14:03;-3.40;99.90
2459;DHT22;1241;50.920;6.936;2022-12-17T18:16:49;-3.40;99.90
2459;DHT22;1241;50.920;6.936;2022-12-17T18:19:17;-3.40;99.90
2459;DHT22;1241;50.920;6.936;2022-12-17T18:21:43;-3.40;99.90
2459;DHT22;1241;50.920;6.936;2022-12-17T18:24:12;-3.40;99.90
2459;DHT22;1241;50.920;6.936;2022-12-17T18:26:40;-3.40;99.90
2459;DHT22;1241;50.920;6.936;2022-12-17T18:29:09;-3.40;99.90
2459;DHT22;1241;50.920;6.936;2022-12-17T18:31:35;-3.50;99.90
2459;DHT22;1241;50.920;6.936;2022-12-17T18:34:02;-3.50;99.90
2459;DHT22;1241;50.920;6.936;2022-12-17T18:36:34;-3.50;99.90
2459;DHT22;1241;50.920;6.936;2022-12-17T18:39:13;-3.50;99.90
2459;DHT22;1241;50.920;6.936;2022-12-17T18:41:39;-3.50;99.90
2459;DHT22;1241;50.920;6.936;2022-12-17T18:44:24;-3.60;99.90